Time;durP1;ratioP1;P1;durP2;ratioP2;P2;SDS_P1;SDS_P2;PMS_P1;PMS_P2;Temp;Humidity;BMP_temperature;BMP_pressure;BME280_temperature;BME280_humidity;BME280_pressure;Samples;Min_cycle;Max_cycle;Signal;HPM_P1;HPM_P2
2022/04/08 00:00:54;;;;;;;8.70;1.00;;;;;;;;;;5051951;28;20060;-76
2022/04/08 00:03:20;;;;;;;17.13;1.77;;;;;;;;;;5051954;28;20063;-77
2022/04/08 00:05:46;;;;;;;11.70;1.17;;;;;;;;;;5051535;28;20083;-76
2022/04/08 00:08:12;;;;;;;8.98;1.52;;;;;;;;;;5051853;28;20118;-76
2022/04/08 00:10:38;;;;;;;9.23;1.48;;;;;;;;;;5051777;28;20460;-76
2022/04/08 00:13:04;;;;;;;10.55;1.10;;;;;;;;;;5053162;28;20036;-76
2022/04/08 00:15:33;;;;;;;10.07;1.50;;;;;;;;;;5071747;28;20352;-76
2022/04/08 00:17:59;;;;;;;9.13;1.15;;;;;;;;;;5053814;28;20042;-76
2022/04/08 00:20:26;;;;;;;8.23;1.30;;;;;;;;;;5071552;28;20020;-76
2022/04/08 00:22:53;;;;;;;11.68;1.40;;;;;;;;;;5071664;28;20847;-76
2022/04/08 00:25:19;;;;;;;12.10;1.17;;;;;;;;;;5071566;28;20032;-76
2022/04/08 00:27:46;;;;;;;12.25;1.23;;;;;;;;;;5071625;28;20153;-76
2022/04/08 00:30:12;;;;;;;9.55;1.70;;;;;;;;;;5071610;28;20466;-76
2022/04/08 00:32:38;;;;;;;10.23;1.30;;;;;;;;;;5053923;28;20478;-76
2022/04/08 00:35:04;;;;;;;11.82;1.60;;;;;;;;;;5071749;28;20051;-76
2022/04/08 00:37:30;;;;;;;10.38;1.23;;;;;;;;;;5071812;28;20028;-76
2022/04/08 00:39:56;;;;;;;16.83;1.60;;;;;;;;;;5071890;28;20047;-77
2022/04/08 00:42:22;;;;;;;8.68;1.23;;;;;;;;;;5056893;28;20029;-77
2022/04/08 00:44:48;;;;;;;18.20;2.25;;;;;;;;;;5051685;28;20028;-77
2022/04/08 00:47:15;;;;;;;13.68;1.73;;;;;;;;;;5051725;28;20490;-76
2022/04/08 00:49:41;;;;;;;15.07;1.38;;;;;;;;;;5033937;28;20057;-76
2022/04/08 00:52:07;;;;;;;20.52;1.90;;;;;;;;;;5052526;28;20027;-76
2022/04/08 00:54:34;;;;;;;9.15;1.33;;;;;;;;;;5056022;28;20044;-76
2022/04/08 00:57:00;;;;;;;15.02;1.95;;;;;;;;;;5055636;28;20029;-76
2022/04/08 00:59:26;;;;;;;28.10;1.50;;;;;;;;;;5055564;28;20069;-76
2022/04/08 01:01:52;;;;;;;17.30;2.17;;;;;;;;;;5055646;28;20071;-76
2022/04/08 01:04:21;;;;;;;14.18;1.35;;;;;;;;;;5055371;28;20044;-75
2022/04/08 01:06:47;;;;;;;25.25;2.90;;;;;;;;;;5055501;28;20119;-77
2022/04/08 01:09:13;;;;;;;14.45;2.00;;;;;;;;;;5055557;28;20065;-77
2022/04/08 01:11:39;;;;;;;12.80;1.73;;;;;;;;;;5055470;28;20029;-77
2022/04/08 01:14:09;;;;;;;10.07;1.42;;;;;;;;;;5065404;28;20029;-77
2022/04/08 01:16:35;;;;;;;21.33;2.05;;;;;;;;;;5075481;28;20024;-77
2022/04/08 01:19:01;;;;;;;11.23;1.58;;;;;;;;;;5075240;28;20060;-76
2022/04/08 01:21:27;;;;;;;11.95;1.67;;;;;;;;;;5075274;28;20037;-77
2022/04/08 01:23:56;;;;;;;15.88;1.80;;;;;;;;;;5075437;28;20032;-77
2022/04/08 01:26:22;;;;;;;21.65;1.77;;;;;;;;;;5075025;28;20459;-77
2022/04/08 01:28:48;;;;;;;22.90;3.58;;;;;;;;;;5057288;28;20478;-77
2022/04/08 01:31:15;;;;;;;16.42;1.60;;;;;;;;;;5075014;28;20067;-77
2022/04/08 01:33:41;;;;;;;13.88;1.63;;;;;;;;;;5075052;28;20056;-77
2022/04/08 01:36:07;;;;;;;16.08;1.88;;;;;;;;;;5074953;28;20463;-76
2022/04/08 01:38:33;;;;;;;16.13;1.77;;;;;;;;;;5075041;28;20025;-77
2022/04/08 01:41:00;;;;;;;20.00;2.00;;;;;;;;;;5071457;28;20063;-77
2022/04/08 01:43:26;;;;;;;19.10;2.42;;;;;;;;;;5055031;28;20028;-76
2022/04/08 01:45:52;;;;;;;18.58;2.85;;;;;;;;;;5054758;28;20017;-77
2022/04/08 01:48:18;;;;;;;12.80;1.80;;;;;;;;;;5054862;28;20452;-77
2022/04/08 01:50:44;;;;;;;19.33;1.80;;;;;;;;;;5054735;28;20028;-77
2022/04/08 01:53:10;;;;;;;17.60;2.22;;;;;;;;;;5054840;28;20036;-77
2022/04/08 01:55:36;;;;;;;15.43;1.90;;;;;;;;;;5054697;28;20021;-77
2022/04/08 01:58:02;;;;;;;15.70;2.03;;;;;;;;;;5054707;28;20025;-76
2022/04/08 02:00:29;;;;;;;19.85;2.80;;;;;;;;;;5036687;28;20502;-76
2022/04/08 02:02:55;;;;;;;17.70;1.67;;;;;;;;;;5054621;28;20119;-77
2022/04/08 02:05:21;;;;;;;15.18;2.78;;;;;;;;;;5054172;28;20063;-76
2022/04/08 02:07:47;;;;;;;17.23;1.70;;;;;;;;;;5054231;28;20542;-77
2022/04/08 02:10:13;;;;;;;18.80;2.08;;;;;;;;;;5054413;28;20053;-77
2022/04/08 02:12:39;;;;;;;17.77;2.17;;;;;;;;;;5054344;28;20083;-77
2022/04/08 02:15:06;;;;;;;16.85;2.22;;;;;;;;;;5072601;28;20032;-76
2022/04/08 02:17:32;;;;;;;18.95;1.85;;;;;;;;;;5074316;28;20031;-76
2022/04/08 02:19:58;;;;;;;18.33;2.38;;;;;;;;;;5074117;28;20029;-77
2022/04/08 02:22:25;;;;;;;12.57;1.70;;;;;;;;;;5056129;28;20063;-76
2022/04/08 02:24:52;;;;;;;19.15;2.25;;;;;;;;;;5074410;28;20033;-76
2022/04/08 02:27:19;;;;;;;18.23;2.00;;;;;;;;;;5073997;28;20058;-77
2022/04/08 02:29:45;;;;;;;17.58;1.60;;;;;;;;;;5074063;28;20100;-77
2022/04/08 02:32:11;;;;;;;20.77;2.15;;;;;;;;;;5074138;28;20535;-76
2022/04/08 02:34:37;;;;;;;16.48;3.10;;;;;;;;;;5073885;28;20021;-77
2022/04/08 02:37:05;;;;;;;17.30;2.45;;;;;;;;;;5073894;28;20024;-77
2022/04/08 02:39:31;;;;;;;22.20;2.28;;;;;;;;;;5073761;28;20024;-76
2022/04/08 02:41:57;;;;;;;14.80;1.63;;;;;;;;;;5073570;28;20044;-77
2022/04/08 02:44:23;;;;;;;33.35;2.50;;;;;;;;;;5055809;28;20131;-76
2022/04/08 02:46:49;;;;;;;19.00;2.35;;;;;;;;;;5073796;28;20090;-77
2022/04/08 02:49:15;;;;;;;20.35;1.98;;;;;;;;;;5073545;28;20032;-77
2022/04/08 02:51:41;;;;;;;12.45;1.90;;;;;;;;;;5073426;28;20028;-77
2022/04/08 02:54:07;;;;;;;16.73;1.80;;;;;;;;;;5073778;28;20021;-77
2022/04/08 02:56:34;;;;;;;18.45;2.88;;;;;;;;;;5073461;28;20032;-77
2022/04/08 02:59:00;;;;;;;19.77;2.25;;;;;;;;;;5073366;28;20086;-77
2022/04/08 03:01:27;;;;;;;20.25;2.25;;;;;;;;;;5073459;28;20444;-77
2022/04/08 03:03:53;;;;;;;11.95;1.70;;;;;;;;;;5073238;28;20103;-77
2022/04/08 03:06:20;;;;;;;13.52;1.95;;;;;;;;;;5053400;28;20041;-76
2022/04/08 03:08:46;;;;;;;14.60;2.00;;;;;;;;;;5053219;28;20028;-77
2022/04/08 03:11:12;;;;;;;9.90;1.20;;;;;;;;;;5052999;28;20522;-77
2022/04/08 03:13:38;;;;;;;10.93;1.60;;;;;;;;;;5052924;28;20101;-77
2022/04/08 03:16:04;;;;;;;11.27;2.10;;;;;;;;;;5052526;28;20054;-77
2022/04/08 03:18:30;;;;;;;7.75;1.35;;;;;;;;;;5052991;28;20021;-77
2022/04/08 03:20:56;;;;;;;8.98;1.08;;;;;;;;;;5053029;28;20899;-77
2022/04/08 03:23:22;;;;;;;9.20;1.35;;;;;;;;;;5053105;28;20037;-77
2022/04/08 03:25:48;;;;;;;7.53;1.40;;;;;;;;;;5052877;28;20127;-77
2022/04/08 03:28:14;;;;;;;8.10;1.23;;;;;;;;;;5052933;28;20119;-77
2022/04/08 03:30:40;;;;;;;7.80;1.05;;;;;;;;;;5052791;28;20601;-77
2022/04/08 03:33:07;;;;;;;5.90;1.15;;;;;;;;;;5052815;28;20028;-77
2022/04/08 03:35:33;;;;;;;7.05;1.15;;;;;;;;;;5052744;28;20090;-77
2022/04/08 03:37:59;;;;;;;5.35;1.10;;;;;;;;;;5052622;28;20021;-77
2022/04/08 03:40:25;;;;;;;6.63;1.23;;;;;;;;;;5052441;28;20441;-77
2022/04/08 03:42:51;;;;;;;8.07;1.27;;;;;;;;;;5033704;28;20479;-77
2022/04/08 03:45:17;;;;;;;10.38;1.60;;;;;;;;;;5032461;28;20025;-77
2022/04/08 03:47:43;;;;;;;6.88;1.20;;;;;;;;;;5032382;28;20049;-77
2022/04/08 03:50:09;;;;;;;10.30;1.75;;;;;;;;;;5032413;28;20021;-77
2022/04/08 03:52:35;;;;;;;9.82;1.70;;;;;;;;;;5032462;28;20031;-77
2022/04/08 03:55:01;;;;;;;6.53;1.60;;;;;;;;;;5032343;28;20021;-77
2022/04/08 03:57:28;;;;;;;7.82;2.08;;;;;;;;;;5032399;28;20104;-77
2022/04/08 03:59:55;;;;;;;8.20;1.60;;;;;;;;;;5032322;28;20029;-77
2022/04/08 04:02:21;;;;;;;8.63;1.52;;;;;;;;;;5014400;28;20447;-77
2022/04/08 04:04:49;;;;;;;7.75;1.67;;;;;;;;;;5039392;28;20509;-77
2022/04/08 04:07:15;;;;;;;12.80;1.90;;;;;;;;;;5052001;28;20037;-77
2022/04/08 04:09:41;;;;;;;14.27;2.00;;;;;;;;;;5052180;28;20040;-77
2022/04/08 04:12:08;;;;;;;11.55;1.70;;;;;;;;;;5052083;28;20029;-77
2022/04/08 04:14:34;;;;;;;9.18;2.00;;;;;;;;;;5052042;28;20021;-77
2022/04/08 04:17:00;;;;;;;12.10;1.90;;;;;;;;;;5052281;28;20036;-76
2022/04/08 04:19:26;;;;;;;14.50;1.95;;;;;;;;;;5056390;28;20027;-77
2022/04/08 04:21:52;;;;;;;7.60;2.08;;;;;;;;;;5071992;28;20025;-76
2022/04/08 04:24:18;;;;;;;10.57;1.70;;;;;;;;;;5053879;28;20044;-77
2022/04/08 04:26:44;;;;;;;10.40;2.13;;;;;;;;;;5070835;28;20032;-77
2022/04/08 04:29:11;;;;;;;4.05;1.38;;;;;;;;;;5071577;28;20047;-77
2022/04/08 04:31:37;;;;;;;13.93;2.50;;;;;;;;;;5071683;28;20383;-77
2022/04/08 04:34:03;;;;;;;13.77;2.10;;;;;;;;;;5071684;28;20024;-77
2022/04/08 04:36:29;;;;;;;11.65;2.05;;;;;;;;;;5071606;28;20025;-76
2022/04/08 04:38:55;;;;;;;14.15;2.08;;;;;;;;;;5071461;28;20055;-77
2022/04/08 04:41:21;;;;;;;14.98;1.70;;;;;;;;;;5071423;28;20025;-77
2022/04/08 04:43:47;;;;;;;14.55;2.83;;;;;;;;;;5071783;28;20494;-77
2022/04/08 04:46:13;;;;;;;11.27;2.63;;;;;;;;;;5071504;28;20040;-77
2022/04/08 04:48:39;;;;;;;11.70;2.00;;;;;;;;;;5071676;28;20032;-77
2022/04/08 04:51:05;;;;;;;17.33;2.50;;;;;;;;;;5071540;28;20065;-77
2022/04/08 04:53:31;;;;;;;15.30;2.47;;;;;;;;;;5053448;28;20028;-76
2022/04/08 04:55:58;;;;;;;17.90;3.70;;;;;;;;;;5071482;28;20021;-77
2022/04/08 04:58:24;;;;;;;18.98;2.70;;;;;;;;;;5071724;28;20133;-77
2022/04/08 05:00:50;;;;;;;24.35;2.95;;;;;;;;;;5071443;28;20032;-77
2022/04/08 05:03:17;;;;;;;12.20;3.10;;;;;;;;;;5071616;28;20025;-77
2022/04/08 05:05:43;;;;;;;18.38;2.67;;;;;;;;;;5072731;28;20448;-76
2022/04/08 05:08:09;;;;;;;14.27;3.15;;;;;;;;;;5053199;28;20374;-77
2022/04/08 05:10:35;;;;;;;12.85;2.97;;;;;;;;;;5071298;28;20016;-76
2022/04/08 05:13:01;;;;;;;10.73;2.80;;;;;;;;;;5070906;28;20024;-77
2022/04/08 05:15:27;;;;;;;18.15;3.25;;;;;;;;;;5070912;28;20078;-77
2022/04/08 05:17:54;;;;;;;14.77;3.40;;;;;;;;;;5071009;28;20021;-77
2022/04/08 05:20:20;;;;;;;20.20;3.58;;;;;;;;;;5070833;28;20071;-77
2022/04/08 05:22:46;;;;;;;13.88;3.15;;;;;;;;;;5070957;28;20166;-76
2022/04/08 05:25:12;;;;;;;13.07;3.60;;;;;;;;;;5070751;28;20106;-77
2022/04/08 05:27:41;;;;;;;19.23;4.18;;;;;;;;;;5070729;28;20025;-76
2022/04/08 05:30:07;;;;;;;18.80;3.65;;;;;;;;;;5052905;28;20078;-77
2022/04/08 05:32:34;;;;;;;9.90;3.90;;;;;;;;;;5071174;28;20047;-77
2022/04/08 05:35:00;;;;;;;25.40;4.50;;;;;;;;;;5070854;28;20435;-77
2022/04/08 05:37:26;;;;;;;20.13;3.63;;;;;;;;;;5070983;28;20073;-76
2022/04/08 05:39:54;;;;;;;16.75;3.70;;;;;;;;;;5074381;28;20028;-76
2022/04/08 05:42:21;;;;;;;15.50;3.10;;;;;;;;;;5074176;28;20036;-77
2022/04/08 05:44:47;;;;;;;18.92;4.20;;;;;;;;;;5074264;28;20020;-77
2022/04/08 05:47:13;;;;;;;16.05;2.97;;;;;;;;;;5074357;28;20032;-76
2022/04/08 05:49:39;;;;;;;52.25;5.63;;;;;;;;;;5074325;28;20663;-77
2022/04/08 05:52:05;;;;;;;16.48;3.38;;;;;;;;;;5074221;28;20379;-77
2022/04/08 05:54:31;;;;;;;15.52;3.47;;;;;;;;;;5074350;28;20510;-77
2022/04/08 05:57:00;;;;;;;15.10;3.15;;;;;;;;;;5074314;28;20040;-76
2022/04/08 05:59:27;;;;;;;13.93;3.22;;;;;;;;;;5056228;28;20379;-77
2022/04/08 06:01:53;;;;;;;16.33;2.78;;;;;;;;;;5074154;28;20024;-77
2022/04/08 06:04:20;;;;;;;9.13;2.30;;;;;;;;;;5073843;28;20072;-77
2022/04/08 06:06:47;;;;;;;15.98;2.83;;;;;;;;;;5074025;28;20029;-77
2022/04/08 06:09:13;;;;;;;16.42;3.25;;;;;;;;;;5074040;28;20024;-76
2022/04/08 06:11:39;;;;;;;19.00;3.35;;;;;;;;;;5074015;28;20035;-77
2022/04/08 06:14:05;;;;;;;11.73;2.42;;;;;;;;;;5074016;28;20028;-77
2022/04/08 06:16:31;;;;;;;15.13;2.72;;;;;;;;;;5073871;28;20470;-77
2022/04/08 06:18:57;;;;;;;11.95;3.13;;;;;;;;;;5073678;28;20029;-77
2022/04/08 06:21:23;;;;;;;13.93;3.20;;;;;;;;;;5073655;28;20028;-77
2022/04/08 06:23:50;;;;;;;7.53;2.40;;;;;;;;;;5073901;28;20079;-77
2022/04/08 06:26:16;;;;;;;15.60;3.47;;;;;;;;;;5055368;28;20136;-77
2022/04/08 06:28:42;;;;;;;14.25;2.80;;;;;;;;;;5073691;28;20033;-77
2022/04/08 06:31:10;;;;;;;8.90;2.75;;;;;;;;;;5073739;28;20017;-76
2022/04/08 06:33:37;;;;;;;13.02;2.70;;;;;;;;;;5073579;28;20016;-76
2022/04/08 06:36:03;;;;;;;13.60;2.55;;;;;;;;;;5073366;28;20029;-77
2022/04/08 06:38:29;;;;;;;8.63;2.38;;;;;;;;;;5073697;28;20082;-77
2022/04/08 06:40:55;;;;;;;7.90;2.22;;;;;;;;;;5070573;28;20025;-77
2022/04/08 06:43:21;;;;;;;8.98;2.30;;;;;;;;;;5035442;28;20017;-76
2022/04/08 06:45:47;;;;;;;7.00;1.92;;;;;;;;;;5053344;28;20036;-77
2022/04/08 06:48:13;;;;;;;11.93;2.08;;;;;;;;;;5053194;28;20053;-76
2022/04/08 06:50:40;;;;;;;7.82;2.15;;;;;;;;;;5052359;28;20099;-76
2022/04/08 06:53:06;;;;;;;10.45;2.35;;;;;;;;;;5053185;28;20102;-77
2022/04/08 06:55:32;;;;;;;10.82;1.92;;;;;;;;;;5035149;28;20027;-77
2022/04/08 06:57:59;;;;;;;10.27;1.98;;;;;;;;;;5053095;28;20029;-76
2022/04/08 07:00:26;;;;;;;7.47;2.00;;;;;;;;;;5053209;28;20083;-77
2022/04/08 07:02:52;;;;;;;13.20;2.30;;;;;;;;;;5053195;28;20033;-77
2022/04/08 07:05:18;;;;;;;15.13;2.30;;;;;;;;;;5052959;28;20045;-77
2022/04/08 07:07:45;;;;;;;11.18;1.88;;;;;;;;;;5034892;28;20036;-77
2022/04/08 07:10:11;;;;;;;16.88;2.45;;;;;;;;;;5052990;28;20033;-77
2022/04/08 07:12:37;;;;;;;13.30;2.10;;;;;;;;;;5034995;28;20365;-77
2022/04/08 07:15:04;;;;;;;15.18;2.03;;;;;;;;;;5070708;28;20028;-77
2022/04/08 07:17:30;;;;;;;20.13;2.22;;;;;;;;;;5072901;28;20031;-77
2022/04/08 07:19:57;;;;;;;9.98;1.67;;;;;;;;;;5072491;28;20153;-77
2022/04/08 07:22:23;;;;;;;8.57;1.63;;;;;;;;;;5072485;28;20039;-76
2022/04/08 07:24:50;;;;;;;8.57;1.67;;;;;;;;;;5072930;28;20467;-76
2022/04/08 07:27:16;;;;;;;8.75;1.60;;;;;;;;;;5072322;28;20051;-77
2022/04/08 07:29:42;;;;;;;7.05;1.30;;;;;;;;;;5054385;28;20028;-77
2022/04/08 07:32:08;;;;;;;13.05;1.48;;;;;;;;;;5054306;28;20025;-77
2022/04/08 07:34:36;;;;;;;11.18;1.70;;;;;;;;;;5072320;28;20024;-77
2022/04/08 07:37:02;;;;;;;8.57;1.75;;;;;;;;;;5072234;28;20099;-77
2022/04/08 07:39:28;;;;;;;9.52;1.42;;;;;;;;;;5054180;28;20024;-76
2022/04/08 07:41:54;;;;;;;10.20;1.48;;;;;;;;;;5061344;28;20082;-77
2022/04/08 07:44:20;;;;;;;6.53;1.20;;;;;;;;;;5052126;28;20033;-77
2022/04/08 07:46:46;;;;;;;7.38;1.40;;;;;;;;;;5052406;28;20044;-77
2022/04/08 07:49:12;;;;;;;7.85;1.60;;;;;;;;;;5052193;28;20029;-77
2022/04/08 07:51:38;;;;;;;4.57;1.25;;;;;;;;;;5051798;28;20032;-77
2022/04/08 07:54:04;;;;;;;4.88;1.50;;;;;;;;;;5052064;28;20017;-77
2022/04/08 07:56:33;;;;;;;4.43;1.40;;;;;;;;;;5051943;28;20058;-77
2022/04/08 07:58:59;;;;;;;5.90;1.20;;;;;;;;;;5051991;28;20026;-77
2022/04/08 08:01:25;;;;;;;8.13;1.65;;;;;;;;;;5052007;28;20493;-77
2022/04/08 08:03:51;;;;;;;7.97;1.60;;;;;;;;;;5051645;28;20109;-77
2022/04/08 08:06:17;;;;;;;10.38;1.40;;;;;;;;;;5033810;28;20136;-76
2022/04/08 08:08:44;;;;;;;10.25;1.85;;;;;;;;;;5051944;28;20195;-77
2022/04/08 08:11:12;;;;;;;8.80;2.17;;;;;;;;;;5051526;28;20440;-77
2022/04/08 08:13:38;;;;;;;9.40;1.50;;;;;;;;;;5057973;28;20023;-77
2022/04/08 08:16:06;;;;;;;4.70;1.27;;;;;;;;;;5071679;28;20130;-77
2022/04/08 08:18:32;;;;;;;7.28;1.58;;;;;;;;;;5071762;28;20339;-78
2022/04/08 08:20:58;;;;;;;10.32;1.58;;;;;;;;;;5071500;28;20028;-76
2022/04/08 08:23:24;;;;;;;14.40;1.60;;;;;;;;;;5071725;28;20029;-77
2022/04/08 08:25:50;;;;;;;5.90;1.50;;;;;;;;;;5071695;28;20040;-77
2022/04/08 08:28:16;;;;;;;11.27;1.90;;;;;;;;;;5071721;28;20516;-77
2022/04/08 08:30:44;;;;;;;7.15;1.40;;;;;;;;;;5071613;28;20434;-77
2022/04/08 08:33:10;;;;;;;12.43;1.65;;;;;;;;;;5071838;28;20524;-76
2022/04/08 08:35:36;;;;;;;6.97;1.48;;;;;;;;;;5071646;28;20069;-77
2022/04/08 08:38:03;;;;;;;7.35;1.42;;;;;;;;;;5071586;28;20138;-77
2022/04/08 08:40:33;;;;;;;6.10;1.40;;;;;;;;;;5071576;28;20463;-77
2022/04/08 08:43:00;;;;;;;8.50;1.90;;;;;;;;;;5051674;28;20036;-77
2022/04/08 08:45:32;;;;;;;11.43;1.75;;;;;;;;;;5051538;28;20108;-77
2022/04/08 08:48:00;;;;;;;9.57;2.00;;;;;;;;;;5051553;28;20021;-77
2022/04/08 08:50:27;;;;;;;15.10;1.80;;;;;;;;;;5051449;28;20020;-77
2022/04/08 08:52:53;;;;;;;10.27;1.77;;;;;;;;;;5051403;28;20048;-77
2022/04/08 08:55:20;;;;;;;9.48;2.03;;;;;;;;;;5051528;28;20025;-77
2022/04/08 08:57:48;;;;;;;8.60;1.58;;;;;;;;;;5051686;28;20494;-77
2022/04/08 09:00:16;;;;;;;8.50;1.55;;;;;;;;;;5051520;28;20098;-77
2022/04/08 09:02:48;;;;;;;8.48;1.80;;;;;;;;;;5033521;28;20433;-77
2022/04/08 09:05:15;;;;;;;9.77;1.63;;;;;;;;;;5051335;28;20078;-77
2022/04/08 09:07:41;;;;;;;13.43;1.58;;;;;;;;;;5051266;28;20037;-77
2022/04/08 09:10:07;;;;;;;6.35;1.40;;;;;;;;;;5051443;28;20021;-77
2022/04/08 09:12:34;;;;;;;9.25;1.60;;;;;;;;;;5051418;28;20036;-77
2022/04/08 09:15:01;;;;;;;11.25;1.75;;;;;;;;;;5072709;28;20032;-77
2022/04/08 09:17:28;;;;;;;11.77;2.05;;;;;;;;;;5075358;28;20028;-77
2022/04/08 09:19:55;;;;;;;7.93;1.88;;;;;;;;;;5075113;28;20035;-76
2022/04/08 09:22:22;;;;;;;9.95;1.58;;;;;;;;;;5075049;28;20104;-77
2022/04/08 09:24:48;;;;;;;13.15;1.63;;;;;;;;;;5075491;28;20107;-77
2022/04/08 09:27:14;;;;;;;14.05;1.95;;;;;;;;;;5056957;28;20119;-77
2022/04/08 09:29:44;;;;;;;8.02;1.65;;;;;;;;;;5075039;28;20025;-77
2022/04/08 09:32:11;;;;;;;6.85;1.42;;;;;;;;;;5074820;28;20025;-77
2022/04/08 09:34:38;;;;;;;9.90;1.45;;;;;;;;;;5056745;28;20480;-77
2022/04/08 09:37:10;;;;;;;9.00;1.23;;;;;;;;;;5074799;28;20111;-77
2022/04/08 09:39:37;;;;;;;4.70;1.27;;;;;;;;;;5074705;28;20097;-77
2022/04/08 09:42:06;;;;;;;7.65;1.48;;;;;;;;;;5074636;28;20404;-77
2022/04/08 09:44:35;;;;;;;8.15;1.20;;;;;;;;;;5074657;28;20087;-76
2022/04/08 09:47:02;;;;;;;8.48;1.17;;;;;;;;;;5074566;28;20024;-77
2022/04/08 09:49:28;;;;;;;7.47;1.60;;;;;;;;;;5074692;28;20024;-77
2022/04/08 09:51:55;;;;;;;7.97;1.77;;;;;;;;;;5074504;28;20462;-76
2022/04/08 09:54:22;;;;;;;10.40;1.48;;;;;;;;;;5074535;28;20024;-77
2022/04/08 09:56:48;;;;;;;7.60;1.30;;;;;;;;;;5074385;28;20025;-77
2022/04/08 09:59:26;;;;;;;9.38;1.30;;;;;;;;;;5074512;28;20021;-77
2022/04/08 10:01:52;;;;;;;7.85;1.40;;;;;;;;;;5074455;28;20028;-76
2022/04/08 10:04:20;;;;;;;9.77;1.50;;;;;;;;;;5056149;28;20474;-77
2022/04/08 10:06:46;;;;;;;11.80;1.67;;;;;;;;;;5056405;28;20056;-77
2022/04/08 10:09:13;;;;;;;9.30;1.88;;;;;;;;;;5074193;28;20059;-77
2022/04/08 10:11:44;;;;;;;14.27;1.75;;;;;;;;;;5074237;28;20021;-77
2022/04/08 10:14:28;;;;;;;6.43;1.20;;;;;;;;;;5063445;28;20048;-77
2022/04/08 10:16:56;;;;;;;12.88;1.73;;;;;;;;;;5054128;28;20028;-77
2022/04/08 10:19:23;;;;;;;13.50;1.50;;;;;;;;;;5036430;28;20463;-77
2022/04/08 10:21:52;;;;;;;13.13;1.58;;;;;;;;;;5054467;28;20025;-74
2022/04/08 10:24:23;;;;;;;9.52;1.92;;;;;;;;;;5053814;28;20496;-74
2022/04/08 10:27:15;;;;;;;13.13;1.67;;;;;;;;;;5053901;28;20036;-74
2022/04/08 10:29:41;;;;;;;8.90;1.50;;;;;;;;;;5052617;28;20044;-74
2022/04/08 10:32:14;;;;;;;8.80;1.80;;;;;;;;;;5054435;28;20462;-74
2022/04/08 10:34:41;;;;;;;6.85;1.20;;;;;;;;;;5054339;28;20104;-74
2022/04/08 10:37:15;;;;;;;10.20;1.42;;;;;;;;;;5054187;28;20025;-74
2022/04/08 10:39:42;;;;;;;7.88;1.48;;;;;;;;;;5054209;28;20493;-74
2022/04/08 10:42:20;;;;;;;8.90;1.90;;;;;;;;;;5054333;28;20463;-74
2022/04/08 10:44:46;;;;;;;7.63;1.52;;;;;;;;;;5054247;28;20025;-74
2022/04/08 10:47:17;;;;;;;9.20;1.42;;;;;;;;;;5053890;28;20024;-74
2022/04/08 10:49:50;;;;;;;11.60;2.07;;;;;;;;;;5052452;28;20043;-74
2022/04/08 10:52:23;;;;;;;4.30;1.13;;;;;;;;;;5053628;28;20035;-74
2022/04/08 10:54:50;;;;;;;13.52;1.95;;;;;;;;;;5053553;28;20447;-75
2022/04/08 10:57:27;;;;;;;13.43;1.60;;;;;;;;;;5053744;28;20025;-74
2022/04/08 10:59:53;;;;;;;10.48;1.23;;;;;;;;;;5053871;28;20032;-74
2022/04/08 11:02:20;;;;;;;10.20;1.38;;;;;;;;;;5053786;28;20029;-74
2022/04/08 11:04:46;;;;;;;6.22;0.82;;;;;;;;;;5053558;28;20037;-74
2022/04/08 11:07:13;;;;;;;7.20;1.17;;;;;;;;;;5053432;28;20446;-74
2022/04/08 11:09:40;;;;;;;9.05;1.13;;;;;;;;;;5053694;28;20024;-74
2022/04/08 11:12:06;;;;;;;4.72;1.15;;;;;;;;;;5053585;28;20079;-74
2022/04/08 11:14:32;;;;;;;12.10;1.42;;;;;;;;;;5053515;28;20021;-74
2022/04/08 11:16:58;;;;;;;4.55;1.02;;;;;;;;;;5053586;28;20025;-74
2022/04/08 11:19:24;;;;;;;7.53;1.88;;;;;;;;;;5057389;28;20028;-74
2022/04/08 11:21:51;;;;;;;7.35;1.65;;;;;;;;;;5073222;28;20025;-73
2022/04/08 11:24:18;;;;;;;11.13;1.50;;;;;;;;;;5073084;28;20029;-74
2022/04/08 11:26:54;;;;;;;7.32;1.35;;;;;;;;;;5072938;28;20141;-74
2022/04/08 11:29:24;;;;;;;7.25;1.80;;;;;;;;;;5073040;28;20023;-74
2022/04/08 11:31:52;;;;;;;4.68;0.98;;;;;;;;;;5073053;28;20069;-74
2022/04/08 11:34:19;;;;;;;11.38;1.10;;;;;;;;;;5073264;28;20444;-74
2022/04/08 11:36:46;;;;;;;10.43;1.33;;;;;;;;;;5072586;28;20028;-74
2022/04/08 11:39:21;;;;;;;9.27;1.30;;;;;;;;;;5073014;28;20439;-74
2022/04/08 11:41:54;;;;;;;8.88;0.90;;;;;;;;;;5062837;28;20522;-74
2022/04/08 11:44:20;;;;;;;5.70;0.85;;;;;;;;;;5051845;28;20029;-74
2022/04/08 11:46:46;;;;;;;8.38;0.98;;;;;;;;;;5053026;28;20021;-74
2022/04/08 11:49:13;;;;;;;4.82;1.27;;;;;;;;;;5052797;28;20552;-74
2022/04/08 11:51:39;;;;;;;5.32;1.08;;;;;;;;;;5052726;28;20025;-74
2022/04/08 11:54:05;;;;;;;5.07;0.85;;;;;;;;;;5052727;28;20422;-74
2022/04/08 11:56:31;;;;;;;6.05;1.30;;;;;;;;;;5052654;28;20025;-74
2022/04/08 11:59:16;;;;;;;7.90;1.48;;;;;;;;;;5052740;28;20029;-74
2022/04/08 12:01:42;;;;;;;5.80;1.00;;;;;;;;;;5052910;28;20024;-74
2022/04/08 12:04:09;;;;;;;5.10;1.05;;;;;;;;;;5052578;28;20079;-74
2022/04/08 12:06:42;;;;;;;10.65;1.33;;;;;;;;;;5052359;28;20036;-74
2022/04/08 12:09:09;;;;;;;8.73;1.30;;;;;;;;;;5052740;28;20021;-74
2022/04/08 12:11:36;;;;;;;12.18;1.20;;;;;;;;;;5052414;28;20040;-74
2022/04/08 12:14:04;;;;;;;9.02;1.00;;;;;;;;;;5052582;28;20023;-74
2022/04/08 12:16:31;;;;;;;6.75;1.10;;;;;;;;;;5052809;28;20029;-74
2022/04/08 12:18:57;;;;;;;5.97;0.90;;;;;;;;;;5052570;28;20025;-74
2022/04/08 12:21:24;;;;;;;9.15;1.02;;;;;;;;;;5052580;28;20125;-74
2022/04/08 12:23:51;;;;;;;6.82;1.33;;;;;;;;;;5052363;28;20075;-75
2022/04/08 12:26:18;;;;;;;11.88;1.33;;;;;;;;;;5052327;28;20059;-75
2022/04/08 12:28:44;;;;;;;7.53;1.45;;;;;;;;;;5052117;28;20033;-75
2022/04/08 12:31:21;;;;;;;5.15;1.15;;;;;;;;;;5052372;28;20471;-74
2022/04/08 12:33:47;;;;;;;8.40;1.30;;;;;;;;;;5052470;28;20025;-74
2022/04/08 12:36:13;;;;;;;4.43;0.88;;;;;;;;;;5051973;28;20032;-74
2022/04/08 12:38:40;;;;;;;4.93;1.17;;;;;;;;;;5052314;28;20103;-75
2022/04/08 12:41:07;;;;;;;5.50;1.08;;;;;;;;;;5052082;28;20047;-75
2022/04/08 12:43:33;;;;;;;6.78;1.20;;;;;;;;;;5052219;28;20551;-75
2022/04/08 12:45:59;;;;;;;7.20;1.75;;;;;;;;;;5052223;28;20028;-75
2022/04/08 12:48:25;;;;;;;4.28;0.95;;;;;;;;;;5053718;28;20028;-75
2022/04/08 12:50:52;;;;;;;4.93;1.00;;;;;;;;;;5056224;28;20514;-75
2022/04/08 12:53:18;;;;;;;4.53;0.80;;;;;;;;;;5038217;28;20063;-75
2022/04/08 12:55:44;;;;;;;5.70;0.98;;;;;;;;;;5038280;28;20021;-75
2022/04/08 12:58:10;;;;;;;7.07;1.50;;;;;;;;;;5056316;28;20356;-75
2022/04/08 13:00:36;;;;;;;6.47;0.90;;;;;;;;;;5055747;28;20099;-75
2022/04/08 13:03:02;;;;;;;6.60;1.05;;;;;;;;;;5055964;28;20093;-74
2022/04/08 13:05:28;;;;;;;5.18;0.75;;;;;;;;;;5055974;28;20037;-74
2022/04/08 13:07:54;;;;;;;3.90;1.00;;;;;;;;;;5056032;28;20482;-75
2022/04/08 13:10:21;;;;;;;6.00;1.20;;;;;;;;;;5056306;28;20033;-75
2022/04/08 13:12:47;;;;;;;7.40;1.00;;;;;;;;;;5056093;28;20471;-75
2022/04/08 13:15:13;;;;;;;12.65;1.63;;;;;;;;;;5055710;28;20104;-75
2022/04/08 13:17:41;;;;;;;4.65;1.05;;;;;;;;;;5056064;28;20768;-75
2022/04/08 13:20:07;;;;;;;3.45;0.80;;;;;;;;;;5065870;28;20443;-75
2022/04/08 13:22:33;;;;;;;9.20;1.00;;;;;;;;;;5075732;28;20033;-75
2022/04/08 13:24:59;;;;;;;8.13;1.00;;;;;;;;;;5075780;28;20119;-76
2022/04/08 13:27:25;;;;;;;7.95;1.17;;;;;;;;;;5075334;28;20043;-75
2022/04/08 13:29:51;;;;;;;5.93;1.00;;;;;;;;;;5075430;28;20024;-75
2022/04/08 13:32:18;;;;;;;11.02;1.08;;;;;;;;;;5075490;28;20091;-75
2022/04/08 13:34:44;;;;;;;6.03;1.00;;;;;;;;;;5075267;28;20035;-74
2022/04/08 13:37:10;;;;;;;6.25;1.20;;;;;;;;;;5075349;28;20032;-74
2022/04/08 13:39:37;;;;;;;4.53;1.00;;;;;;;;;;5075382;28;20459;-74
2022/04/08 13:42:03;;;;;;;5.53;0.88;;;;;;;;;;5063212;28;20090;-74
2022/04/08 13:44:30;;;;;;;4.72;1.05;;;;;;;;;;5055241;28;20063;-74
2022/04/08 13:46:57;;;;;;;8.00;1.40;;;;;;;;;;5055118;28;20021;-74
2022/04/08 13:49:23;;;;;;;2.25;0.80;;;;;;;;;;5055260;28;20035;-75
2022/04/08 13:51:49;;;;;;;5.93;1.02;;;;;;;;;;5055031;28;20111;-74
2022/04/08 13:54:15;;;;;;;6.07;1.30;;;;;;;;;;5055027;28;20048;-74
2022/04/08 13:56:41;;;;;;;6.35;1.20;;;;;;;;;;5055133;28;20328;-74
2022/04/08 13:59:07;;;;;;;9.48;0.98;;;;;;;;;;5054584;28;20154;-74
2022/04/08 14:01:33;;;;;;;8.65;1.70;;;;;;;;;;5055107;28;20627;-74
2022/04/08 14:04:00;;;;;;;6.88;1.50;;;;;;;;;;5036510;28;20188;-74
2022/04/08 14:06:26;;;;;;;4.68;1.10;;;;;;;;;;5054564;28;20024;-74
2022/04/08 14:08:53;;;;;;;5.70;1.52;;;;;;;;;;5054642;28;20044;-74
2022/04/08 14:11:19;;;;;;;6.63;1.08;;;;;;;;;;5054645;28;20076;-74
2022/04/08 14:13:45;;;;;;;7.95;1.20;;;;;;;;;;5061893;28;20032;-74
2022/04/08 14:16:11;;;;;;;6.97;1.65;;;;;;;;;;5056487;28;20029;-74
2022/04/08 14:18:37;;;;;;;11.93;1.70;;;;;;;;;;5074643;28;20379;-74
2022/04/08 14:21:03;;;;;;;8.35;1.45;;;;;;;;;;5074355;28;20359;-74
2022/04/08 14:23:29;;;;;;;12.48;1.38;;;;;;;;;;5056453;28;20382;-74
2022/04/08 14:25:56;;;;;;;7.75;1.35;;;;;;;;;;5074252;28;20116;-74
2022/04/08 14:28:24;;;;;;;9.52;1.58;;;;;;;;;;5074307;28;20028;-75
2022/04/08 14:30:50;;;;;;;6.10;1.35;;;;;;;;;;5074249;28;20339;-75
2022/04/08 14:33:16;;;;;;;8.85;1.77;;;;;;;;;;5074357;28;20348;-75